Time;durP1;ratioP1;P1;durP2;ratioP2;P2;SDS_P1;SDS_P2;PMS_P1;PMS_P2;Temp;Humidity;BMP_temperature;BMP_pressure;BME280_temperature;BME280_humidity;BME280_pressure;Samples;Min_cycle;Max_cycle;Signal;HPM_P1;HPM_P2
2021/12/31 00:01:31;;;;;;;18.95;3.58;;;;;;;14.59;100.00;98503.28;5083122;28;20028;-57
2021/12/31 00:03:57;;;;;;;19.33;3.88;;;;;;;14.17;100.00;98499.16;5078897;28;20400;-56
2021/12/31 00:06:22;;;;;;;16.15;3.53;;;;;;;14.35;100.00;98507.94;5080997;28;20041;-55
2021/12/31 00:08:48;;;;;;;19.83;3.90;;;;;;;13.83;100.00;98506.00;5075777;28;20116;-57
2021/12/31 00:11:13;;;;;;;17.77;3.72;;;;;;;14.32;100.00;98495.81;5063206;28;20071;-56
2021/12/31 00:13:38;;;;;;;17.23;3.78;;;;;;;14.69;100.00;98499.28;5081270;28;20055;-56
2021/12/31 00:16:04;;;;;;;14.85;3.25;;;;;;;15.09;100.00;98501.66;5075340;28;20074;-58
2021/12/31 00:18:29;;;;;;;17.45;3.65;;;;;;;14.93;100.00;98496.38;5078411;28;20371;-57
2021/12/31 00:20:55;;;;;;;19.92;4.00;;;;;;;14.52;100.00;98496.59;5093143;27;20104;-56
2021/12/31 00:23:25;;;;;;;22.90;4.22;;;;;;;14.51;100.00;98495.75;5080480;28;20076;-60
2021/12/31 00:25:50;;;;;;;19.17;3.75;;;;;;;14.52;100.00;98491.34;5075192;28;20040;-56
2021/12/31 00:28:16;;;;;;;18.20;3.40;;;;;;;14.76;100.00;98495.44;5079993;28;20025;-55
2021/12/31 00:30:41;;;;;;;21.58;4.05;;;;;;;14.38;100.00;98495.50;5074346;28;20032;-55
2021/12/31 00:33:08;;;;;;;20.00;3.88;;;;;;;14.44;100.00;98492.56;5061472;28;20032;-55
2021/12/31 00:35:35;;;;;;;21.33;4.45;;;;;;;14.14;100.00;98491.47;5073858;28;20032;-54
2021/12/31 00:38:01;;;;;;;21.35;4.25;;;;;;;14.10;100.00;98479.38;5080134;28;20043;-57
2021/12/31 00:40:27;;;;;;;17.23;3.90;;;;;;;14.06;100.00;98478.69;5078301;28;20042;-57
2021/12/31 00:42:53;;;;;;;22.05;3.70;;;;;;;14.37;100.00;98482.47;5091015;27;20129;-57
2021/12/31 00:45:20;;;;;;;22.38;4.25;;;;;;;14.28;100.00;98499.53;5079527;28;20114;-56
2021/12/31 00:47:46;;;;;;;21.75;4.03;;;;;;;14.31;100.00;98496.72;5077436;28;20497;-58
2021/12/31 00:50:13;;;;;;;22.15;4.18;;;;;;;14.22;100.00;98499.78;5077602;28;20089;-57
2021/12/31 00:52:38;;;;;;;18.55;3.70;;;;;;;14.50;100.00;98503.72;5074500;28;20034;-56
2021/12/31 00:55:05;;;;;;;16.10;3.53;;;;;;;14.30;100.00;98500.28;5077268;28;20036;-57
2021/12/31 00:57:31;;;;;;;21.35;4.13;;;;;;;14.22;100.00;98502.41;5081213;28;20521;-57
2021/12/31 00:59:57;;;;;;;17.00;3.85;;;;;;;14.51;100.00;98502.78;5080163;28;20806;-57
2021/12/31 01:02:26;;;;;;;19.48;4.18;;;;;;;14.01;100.00;98510.38;5075626;28;20045;-56
2021/12/31 01:04:52;;;;;;;19.85;3.60;;;;;;;14.00;100.00;98510.44;5075562;28;20700;-56
2021/12/31 01:07:18;;;;;;;18.67;4.03;;;;;;;14.43;100.00;98508.44;5078140;28;20128;-55
2021/12/31 01:09:43;;;;;;;13.40;3.15;;;;;;;14.53;100.00;98516.69;5073952;28;20059;-57
2021/12/31 01:12:11;;;;;;;18.20;4.15;;;;;;;14.23;100.00;98512.84;5078188;28;20040;-55
2021/12/31 01:14:40;;;;;;;22.92;4.07;;;;;;;13.84;100.00;98520.78;5076678;28;20028;-58
2021/12/31 01:17:10;;;;;;;18.25;3.42;;;;;;;14.16;100.00;98528.97;5074496;28;20050;-56
2021/12/31 01:19:46;;;;;;;17.33;3.28;;;;;;;14.22;100.00;98532.13;5077838;28;20051;-56
2021/12/31 01:22:16;;;;;;;19.10;3.78;;;;;;;14.30;100.00;98518.66;5075059;28;20025;-55
2021/12/31 01:24:42;;;;;;;23.52;4.22;;;;;;;14.26;100.00;98522.34;5077708;28;20027;-56
2021/12/31 01:27:08;;;;;;;19.23;3.78;;;;;;;14.03;100.00;98532.16;5079673;28;20035;-57
2021/12/31 01:29:34;;;;;;;19.50;3.70;;;;;;;14.03;100.00;98524.28;5077687;28;20024;-55
2021/12/31 01:31:59;;;;;;;23.67;4.22;;;;;;;14.35;100.00;98521.88;5074463;28;20071;-55
2021/12/31 01:34:24;;;;;;;25.50;4.40;;;;;;;14.21;100.00;98524.34;5072378;28;20044;-56
2021/12/31 01:36:51;;;;;;;25.05;4.28;;;;;;;14.22;100.00;98536.53;5074172;28;20033;-56
2021/12/31 01:39:16;;;;;;;19.60;3.40;;;;;;;14.77;100.00;98531.25;5080683;28;20035;-56
2021/12/31 01:41:42;;;;;;;20.40;3.90;;;;;;;14.41;100.00;98521.63;5078510;28;20124;-55
2021/12/31 01:44:08;;;;;;;19.67;3.67;;;;;;;14.29;100.00;98529.22;5072870;28;20059;-58
2021/12/31 01:46:35;;;;;;;21.40;3.75;;;;;;;14.08;100.00;98530.16;5077097;28;20117;-55
2021/12/31 01:49:03;;;;;;;16.77;3.30;;;;;;;14.38;100.00;98520.91;5073286;28;20052;-57
2021/12/31 01:51:29;;;;;;;17.77;3.45;;;;;;;14.09;100.00;98531.00;5074247;28;20396;-55
2021/12/31 01:53:54;;;;;;;16.63;3.03;;;;;;;14.61;100.00;98528.56;5077471;28;20490;-56
2021/12/31 01:56:22;;;;;;;20.02;3.45;;;;;;;14.33;100.00;98529.00;5076806;28;20044;-55
2021/12/31 01:58:55;;;;;;;18.20;3.63;;;;;;;14.23;100.00;98517.25;5073035;28;20562;-57
2021/12/31 02:01:21;;;;;;;21.40;3.83;;;;;;;14.27;100.00;98535.38;5075724;28;20036;-56
2021/12/31 02:03:47;;;;;;;17.83;3.63;;;;;;;13.93;100.00;98530.88;5075742;28;20029;-55
2021/12/31 02:06:12;;;;;;;20.35;3.83;;;;;;;14.18;100.00;98530.56;5075305;28;20398;-55
2021/12/31 02:08:37;;;;;;;19.02;3.60;;;;;;;14.40;100.00;98525.16;5078148;28;20097;-56
2021/12/31 02:11:03;;;;;;;20.77;3.65;;;;;;;14.53;100.00;98537.69;5078371;28;20047;-55
2021/12/31 02:13:29;;;;;;;18.15;3.70;;;;;;;14.35;100.00;98537.63;5082444;28;20139;-56
2021/12/31 02:15:54;;;;;;;18.30;3.53;;;;;;;14.36;100.00;98528.00;5077691;28;20371;-56
2021/12/31 02:18:20;;;;;;;18.70;3.50;;;;;;;14.24;100.00;98535.56;5077306;28;20515;-55
2021/12/31 02:20:48;;;;;;;18.20;3.58;;;;;;;14.01;100.00;98539.25;5066064;28;20856;-56
2021/12/31 02:23:24;;;;;;;24.25;4.15;;;;;;;14.15;100.00;98527.25;5074074;28;20634;-55
2021/12/31 02:25:50;;;;;;;19.35;3.78;;;;;;;14.36;100.00;98523.59;5090031;28;20047;-57
2021/12/31 02:28:16;;;;;;;21.33;3.85;;;;;;;13.90;100.00;98525.78;5074201;28;20566;-55
2021/12/31 02:30:42;;;;;;;17.08;3.33;;;;;;;14.02;100.00;98529.59;5078973;28;20604;-56
2021/12/31 02:33:08;;;;;;;16.58;3.40;;;;;;;13.87;100.00;98525.91;5075853;28;20261;-55
2021/12/31 02:35:35;;;;;;;21.23;3.78;;;;;;;14.00;100.00;98529.66;5078246;28;20378;-58
2021/12/31 02:38:02;;;;;;;19.45;3.70;;;;;;;13.90;100.00;98530.19;5074253;28;20024;-56
2021/12/31 02:40:28;;;;;;;19.17;3.60;;;;;;;13.74;100.00;98520.38;5074545;28;20043;-55
2021/12/31 02:42:57;;;;;;;19.55;3.60;;;;;;;14.16;100.00;98523.72;5074673;28;20021;-55
2021/12/31 02:45:29;;;;;;;16.45;3.05;;;;;;;14.00;100.00;98532.28;5076877;28;20040;-56
2021/12/31 02:47:56;;;;;;;23.38;3.72;;;;;;;13.78;100.00;98521.09;5075435;28;20029;-55
2021/12/31 02:50:33;;;;;;;21.30;3.70;;;;;;;13.87;100.00;98525.91;5078261;28;20024;-55
2021/12/31 02:52:58;;;;;;;19.85;3.63;;;;;;;13.96;100.00;98530.72;5079784;28;20034;-56
2021/12/31 02:55:24;;;;;;;21.48;4.05;;;;;;;13.96;100.00;98528.09;5076248;28;20028;-57
2021/12/31 02:57:50;;;;;;;20.23;3.45;;;;;;;13.87;100.00;98518.88;5075552;28;20138;-56
2021/12/31 03:00:16;;;;;;;21.65;3.75;;;;;;;13.71;100.00;98517.91;5074728;28;20390;-56
2021/12/31 03:02:42;;;;;;;17.13;3.20;;;;;;;13.84;100.00;98524.28;5075044;28;20019;-56
2021/12/31 03:05:09;;;;;;;16.75;3.05;;;;;;;14.02;100.00;98519.97;5078016;28;20033;-56
2021/12/31 03:07:36;;;;;;;19.33;3.42;;;;;;;13.95;100.00;98518.56;5080408;28;20494;-55
2021/12/31 03:10:03;;;;;;;18.05;3.33;;;;;;;14.35;100.00;98516.66;5080549;28;20539;-56
2021/12/31 03:12:28;;;;;;;22.15;3.75;;;;;;;13.94;100.00;98518.63;5077019;28;20512;-56
2021/12/31 03:14:54;;;;;;;16.95;3.13;;;;;;;14.06;100.00;98524.16;5079596;28;20903;-58
2021/12/31 03:17:20;;;;;;;17.05;3.30;;;;;;;13.84;100.00;98516.41;5077751;28;20075;-58
2021/12/31 03:19:46;;;;;;;17.38;3.33;;;;;;;14.28;100.00;98515.25;5081917;28;20739;-58
2021/12/31 03:22:11;;;;;;;18.60;3.55;;;;;;;13.93;100.00;98509.91;5082708;28;20511;-58
2021/12/31 03:24:37;;;;;;;21.73;3.83;;;;;;;13.61;100.00;98514.84;5076812;28;20031;-55
2021/12/31 03:27:02;;;;;;;20.23;3.72;;;;;;;13.83;100.00;98511.25;5084133;27;20101;-55
2021/12/31 03:29:28;;;;;;;18.38;3.40;;;;;;;13.60;100.00;98501.78;5078359;28;20441;-56
2021/12/31 03:31:53;;;;;;;19.85;3.45;;;;;;;13.56;100.00;98503.69;5076396;28;20043;-57
2021/12/31 03:34:20;;;;;;;19.67;3.67;;;;;;;13.81;100.00;98506.06;5082791;28;20488;-55
2021/12/31 03:36:45;;;;;;;22.60;3.90;;;;;;;13.50;100.00;98501.38;5076904;28;20091;-55
2021/12/31 03:39:11;;;;;;;25.80;4.00;;;;;;;13.57;100.00;98500.19;5079721;28;20623;-57
2021/12/31 03:41:38;;;;;;;17.17;3.17;;;;;;;13.56;100.00;98489.75;5077117;28;20569;-55
2021/12/31 03:44:04;;;;;;;23.17;3.78;;;;;;;13.61;100.00;98499.09;5079674;28;20016;-55
2021/12/31 03:46:30;;;;;;;18.73;3.38;;;;;;;13.33;100.00;98498.66;5077044;28;20041;-57
2021/12/31 03:48:55;;;;;;;16.88;3.28;;;;;;;13.34;100.00;98495.94;5076446;28;20122;-55
2021/12/31 03:51:21;;;;;;;18.70;3.67;;;;;;;13.20;100.00;98500.94;5077849;28;20122;-55
2021/12/31 03:53:46;;;;;;;22.42;3.60;;;;;;;13.12;100.00;98501.25;5077733;28;20118;-55
2021/12/31 03:56:11;;;;;;;19.42;3.50;;;;;;;13.49;100.00;98504.91;5078084;28;20056;-56
2021/12/31 03:58:37;;;;;;;21.35;3.83;;;;;;;13.56;100.00;98501.09;5078030;28;20583;-55
2021/12/31 04:01:03;;;;;;;16.70;3.35;;;;;;;13.42;100.00;98511.34;5078597;28;20040;-55
2021/12/31 04:03:28;;;;;;;24.60;4.10;;;;;;;13.30;100.00;98512.69;5075111;28;20046;-57
2021/12/31 04:05:53;;;;;;;22.10;3.70;;;;;;;13.35;100.00;98517.78;5080492;28;20490;-55
2021/12/31 04:08:19;;;;;;;24.45;4.03;;;;;;;13.15;100.00;98516.84;5078612;28;20023;-54
2021/12/31 04:10:45;;;;;;;15.52;2.95;;;;;;;13.38;100.00;98515.88;5094478;27;20067;-57
2021/12/31 04:13:11;;;;;;;19.55;3.33;;;;;;;14.09;100.00;98520.50;5079278;28;20034;-54
2021/12/31 04:15:36;;;;;;;20.42;3.35;;;;;;;14.04;100.00;98515.50;5092265;27;20059;-54
2021/12/31 04:18:01;;;;;;;16.75;3.38;;;;;;;13.94;100.00;98518.63;5093618;27;20031;-55
2021/12/31 04:20:40;;;;;;;17.98;3.17;;;;;;;13.72;100.00;98516.13;5076424;28;20096;-54
2021/12/31 04:23:12;;;;;;;19.20;3.40;;;;;;;13.75;100.00;98515.97;5074452;28;20028;-54
2021/12/31 04:25:38;;;;;;;22.63;3.92;;;;;;;13.81;100.00;98511.31;5073335;28;20090;-54
2021/12/31 04:28:05;;;;;;;16.88;3.05;;;;;;;13.88;100.00;98509.25;5078248;28;20138;-56
2021/12/31 04:30:31;;;;;;;23.60;3.90;;;;;;;13.85;100.00;98507.63;5077737;28;20036;-54
2021/12/31 04:32:56;;;;;;;23.63;3.97;;;;;;;13.61;100.00;98514.84;5079541;28;20714;-54
2021/12/31 04:35:21;;;;;;;23.08;3.90;;;;;;;14.14;100.00;98518.53;5075178;28;20205;-54
2021/12/31 04:37:47;;;;;;;20.65;3.65;;;;;;;13.48;100.00;98519.78;5088174;27;20036;-55
2021/12/31 04:40:13;;;;;;;21.80;3.88;;;;;;;13.68;100.00;98520.66;5077234;28;20023;-54
2021/12/31 04:42:43;;;;;;;21.98;3.75;;;;;;;13.95;100.00;98518.56;5076188;28;20024;-54
2021/12/31 04:45:10;;;;;;;20.65;3.58;;;;;;;13.82;100.00;98522.63;5078100;28;20436;-56
2021/12/31 04:47:35;;;;;;;21.52;3.78;;;;;;;13.79;100.00;98517.56;5080857;28;20030;-55
2021/12/31 04:50:01;;;;;;;22.65;3.70;;;;;;;13.62;100.00;98511.31;5078902;28;20024;-56
2021/12/31 04:52:26;;;;;;;21.10;3.60;;;;;;;13.53;100.00;98514.34;5076973;28;20063;-55
2021/12/31 04:54:51;;;;;;;17.50;3.38;;;;;;;13.97;100.00;98521.94;5076964;28;20035;-55
2021/12/31 04:57:16;;;;;;;18.67;3.47;;;;;;;13.56;100.00;98535.16;5076226;28;20059;-54
2021/12/31 04:59:42;;;;;;;19.33;3.47;;;;;;;14.60;100.00;98533.88;5076781;28;20032;-56
2021/12/31 05:02:07;;;;;;;18.65;3.40;;;;;;;14.28;100.00;98525.75;5077745;28;20117;-55
2021/12/31 05:04:33;;;;;;;19.48;3.50;;;;;;;14.28;100.00;98531.00;5081568;28;20032;-56
2021/12/31 05:06:58;;;;;;;19.55;3.58;;;;;;;13.63;100.00;98518.22;5075613;28;20577;-56
2021/12/31 05:09:24;;;;;;;18.63;3.28;;;;;;;14.01;100.00;98520.03;5077371;28;20033;-58
2021/12/31 05:11:49;;;;;;;19.00;3.55;;;;;;;14.11;100.00;98516.03;5074836;28;20028;-55
2021/12/31 05:14:15;;;;;;;19.85;3.50;;;;;;;14.23;100.00;98512.00;5077048;28;20581;-55
2021/12/31 05:16:40;;;;;;;20.83;3.60;;;;;;;14.61;100.00;98523.31;5076022;28;20090;-55
2021/12/31 05:19:06;;;;;;;20.48;3.53;;;;;;;14.24;100.00;98529.44;5075862;28;20035;-55
2021/12/31 05:21:32;;;;;;;20.10;3.72;;;;;;;14.51;100.00;98526.41;5074181;28;20073;-54
2021/12/31 05:23:58;;;;;;;15.45;2.97;;;;;;;14.68;100.00;98523.00;5075685;28;20017;-54
2021/12/31 05:26:23;;;;;;;21.55;3.90;;;;;;;14.88;100.00;98520.22;5075707;28;20062;-57
2021/12/31 05:28:49;;;;;;;14.20;2.90;;;;;;;15.21;100.00;98527.31;5077704;28;20036;-58
2021/12/31 05:31:15;;;;;;;17.02;3.17;;;;;;;14.83;100.00;98516.97;5077463;28;20105;-56
2021/12/31 05:33:41;;;;;;;19.63;3.60;;;;;;;14.87;100.00;98518.53;5075288;28;20402;-55
2021/12/31 05:36:06;;;;;;;19.05;3.38;;;;;;;14.74;100.00;98507.78;5083759;28;20797;-55
2021/12/31 05:38:32;;;;;;;16.40;3.20;;;;;;;14.64;100.00;98506.53;5079874;28;20052;-57
2021/12/31 05:40:57;;;;;;;15.88;3.25;;;;;;;14.59;100.00;98508.53;5076940;28;20043;-55
2021/12/31 05:43:22;;;;;;;25.00;4.53;;;;;;;14.43;100.00;98498.75;5079052;28;20023;-55
2021/12/31 05:45:48;;;;;;;17.05;3.60;;;;;;;13.95;100.00;98505.44;5074701;28;20062;-55
2021/12/31 05:48:13;;;;;;;19.75;3.85;;;;;;;14.14;100.00;98500.16;5076617;28;20027;-56
2021/12/31 05:50:38;;;;;;;19.75;3.83;;;;;;;13.92;100.00;98516.06;5094041;27;20088;-55
2021/12/31 05:53:04;;;;;;;19.55;3.35;;;;;;;14.67;100.00;98511.66;5077840;28;20038;-54
2021/12/31 05:55:29;;;;;;;19.38;3.53;;;;;;;14.67;100.00;98511.66;5072294;28;20032;-55
2021/12/31 05:57:56;;;;;;;19.13;3.60;;;;;;;13.91;100.00;98510.88;5078915;28;20145;-56
2021/12/31 06:00:23;;;;;;;19.73;3.65;;;;;;;14.22;100.00;98500.63;5076818;28;20641;-56
2021/12/31 06:02:48;;;;;;;20.55;3.75;;;;;;;13.84;100.00;98508.56;5075609;28;20021;-55
2021/12/31 06:05:14;;;;;;;20.48;4.00;;;;;;;13.75;100.00;98508.97;5074238;28;20085;-55
2021/12/31 06:07:39;;;;;;;16.33;3.67;;;;;;;13.59;100.00;98503.56;5074560;28;20080;-55
2021/12/31 06:10:05;;;;;;;18.70;3.38;;;;;;;13.99;100.00;98503.53;5079687;28;20023;-55
2021/12/31 06:12:34;;;;;;;19.38;3.58;;;;;;;13.82;100.00;98504.28;5076163;28;20068;-54
2021/12/31 06:15:03;;;;;;;21.35;3.78;;;;;;;13.47;100.00;98504.13;5080168;28;20097;-55
2021/12/31 06:17:28;;;;;;;25.02;4.22;;;;;;;13.88;100.00;98502.25;5074494;28;20051;-55
2021/12/31 06:19:54;;;;;;;17.80;3.50;;;;;;;13.83;100.00;98498.97;5079708;28;20028;-54
2021/12/31 06:22:21;;;;;;;17.83;3.45;;;;;;;13.52;100.00;98504.75;5077762;28;20479;-54
2021/12/31 06:24:46;;;;;;;20.73;3.78;;;;;;;13.36;100.00;98503.75;5081045;28;20048;-58
2021/12/31 06:27:12;;;;;;;18.73;3.30;;;;;;;13.38;100.00;98496.66;5079697;28;20410;-57
2021/12/31 06:29:37;;;;;;;17.98;3.40;;;;;;;13.22;100.00;98494.69;5078495;28;20147;-56
2021/12/31 06:32:03;;;;;;;21.65;3.78;;;;;;;13.47;100.00;98480.53;5075752;28;20032;-56
2021/12/31 06:34:28;;;;;;;20.90;3.58;;;;;;;13.39;100.00;98482.66;5075270;28;20030;-56
2021/12/31 06:36:54;;;;;;;24.50;4.03;;;;;;;13.20;100.00;98491.31;5076536;28;20032;-57
2021/12/31 06:39:19;;;;;;;19.38;3.50;;;;;;;13.37;100.00;98495.81;5073777;28;20023;-54
2021/12/31 06:41:45;;;;;;;21.90;3.75;;;;;;;13.21;100.00;98490.38;5079082;27;20125;-54
2021/12/31 06:44:10;;;;;;;21.10;3.72;;;;;;;13.29;100.00;98498.75;5081883;28;20029;-55
2021/12/31 06:46:36;;;;;;;18.92;3.55;;;;;;;13.30;100.00;98500.47;5064795;28;20046;-57
2021/12/31 06:49:01;;;;;;;17.05;3.13;;;;;;;13.38;100.00;98501.91;5080092;28;20027;-54
2021/12/31 06:51:26;;;;;;;19.60;3.45;;;;;;;13.40;100.00;98502.69;5079020;28;20035;-55
2021/12/31 06:53:52;;;;;;;20.63;3.55;;;;;;;13.40;100.00;98506.19;5081620;28;20057;-55
2021/12/31 06:56:17;;;;;;;16.08;2.90;;;;;;;13.52;100.00;98512.63;5083556;28;20840;-55
2021/12/31 06:58:44;;;;;;;21.33;3.30;;;;;;;13.68;100.00;98511.03;5093890;27;20054;-54
2021/12/31 07:01:10;;;;;;;19.80;3.42;;;;;;;13.59;100.00;98513.22;5077104;28;20058;-56
2021/12/31 07:03:35;;;;;;;20.63;3.63;;;;;;;13.62;100.00;98526.16;5076190;28;20485;-54
2021/12/31 07:06:00;;;;;;;15.98;3.08;;;;;;;13.69;100.00;98531.09;5081582;28;20662;-54
2021/12/31 07:08:26;;;;;;;17.83;3.38;;;;;;;13.29;100.00;98524.97;5081848;28;20028;-55
2021/12/31 07:10:51;;;;;;;19.45;3.35;;;;;;;13.72;100.00;98524.00;5078935;28;20115;-57
2021/12/31 07:13:17;;;;;;;20.63;3.60;;;;;;;13.87;100.00;98532.00;5079736;28;20062;-58
2021/12/31 07:15:49;;;;;;;19.42;3.45;;;;;;;13.94;100.00;98527.31;5080719;28;20601;-56
2021/12/31 07:18:15;;;;;;;17.35;3.03;;;;;;;14.05;100.00;98532.91;5083900;28;20035;-58
2021/12/31 07:20:41;;;;;;;17.17;3.20;;;;;;;14.14;100.00;98534.28;5081540;28;20045;-58
2021/12/31 07:23:09;;;;;;;17.88;3.30;;;;;;;14.31;100.00;98536.09;5075826;28;20024;-56
2021/12/31 07:25:35;;;;;;;20.08;3.58;;;;;;;14.46;100.00;98530.13;5079688;28;20399;-57
2021/12/31 07:28:00;;;;;;;20.88;3.80;;;;;;;14.63;100.00;98528.47;5079278;28;20023;-56
2021/12/31 07:30:26;;;;;;;17.17;3.20;;;;;;;14.63;100.00;98539.84;5081769;28;20225;-56
2021/12/31 07:32:51;;;;;;;19.77;3.33;;;;;;;14.90;100.00;98546.41;5079537;28;20048;-56
2021/12/31 07:35:17;;;;;;;16.02;3.20;;;;;;;14.73;100.00;98548.09;5075892;28;20030;-55
2021/12/31 07:37:42;;;;;;;15.32;3.13;;;;;;;15.08;100.00;98556.00;5081483;28;20058;-57
2021/12/31 07:40:10;;;;;;;16.08;3.10;;;;;;;14.97;100.00;98545.19;5084367;28;20035;-58
2021/12/31 07:42:36;;;;;;;18.98;3.55;;;;;;;14.07;100.00;98544.19;5077683;28;20086;-56
2021/12/31 07:45:02;;;;;;;18.45;3.58;;;;;;;14.08;100.00;98535.41;5080111;28;20032;-57
2021/12/31 07:47:27;;;;;;;16.52;3.25;;;;;;;14.23;100.00;98543.50;5074251;28;20051;-56
2021/12/31 07:49:53;;;;;;;20.40;3.50;;;;;;;14.08;100.00;98540.66;5077980;28;20023;-55
2021/12/31 07:52:18;;;;;;;15.75;3.08;;;;;;;14.70;100.00;98542.97;5076382;28;20581;-57
2021/12/31 07:54:43;;;;;;;20.92;4.10;;;;;;;13.94;100.00;98553.56;5079553;28;20749;-57
2021/12/31 07:57:09;;;;;;;17.63;3.40;;;;;;;14.52;100.00;98554.34;5080148;28;20044;-55
2021/12/31 07:59:34;;;;;;;17.75;3.38;;;;;;;14.22;100.00;98562.75;5099465;27;20036;-57
2021/12/31 08:01:59;;;;;;;22.13;4.18;;;;;;;13.50;100.00;98559.88;5078067;28;20059;-55
2021/12/31 08:04:25;;;;;;;18.15;3.72;;;;;;;13.54;100.00;98567.59;5079961;28;20034;-56
2021/12/31 08:06:50;;;;;;;15.63;3.20;;;;;;;14.05;100.00;98564.41;5084529;28;20116;-56
2021/12/31 08:09:15;;;;;;;15.20;3.10;;;;;;;14.48;100.00;98573.81;5084085;28;20115;-56
2021/12/31 08:11:41;;;;;;;21.77;4.00;;;;;;;13.82;100.00;98559.34;5077623;28;20032;-57
2021/12/31 08:14:07;;;;;;;20.98;3.88;;;;;;;14.03;100.00;98563.63;5081552;28;20020;-55
2021/12/31 08:16:32;;;;;;;15.82;3.15;;;;;;;14.04;100.00;98570.59;5079570;28;20486;-57
2021/12/31 08:18:58;;;;;;;20.25;3.78;;;;;;;13.69;100.00;98570.41;5080290;28;20038;-55
2021/12/31 08:21:23;;;;;;;17.60;3.60;;;;;;;13.62;100.00;98568.97;5080344;28;20028;-56
2021/12/31 08:23:48;;;;;;;17.40;3.72;;;;;;;13.97;100.00;98571.78;5078521;28;20035;-57
2021/12/31 08:26:14;;;;;;;17.80;3.90;;;;;;;13.75;100.00;98574.53;5078615;28;20039;-57
2021/12/31 08:28:40;;;;;;;18.25;3.95;;;;;;;13.52;100.00;98562.44;5077009;28;20029;-57
2021/12/31 08:31:06;;;;;;;20.83;3.75;;;;;;;13.80;100.00;98555.94;5080033;28;20043;-58
2021/12/31 08:33:31;;;;;;;19.15;3.55;;;;;;;13.76;100.00;98550.00;5073042;28;20024;-57
2021/12/31 08:35:56;;;;;;;20.08;3.92;;;;;;;13.83;100.00;98545.34;5079042;28;20048;-58
2021/12/31 08:38:23;;;;;;;18.60;3.47;;;;;;;14.19;100.00;98552.41;5079558;28;20032;-56
2021/12/31 08:40:49;;;;;;;22.70;3.92;;;;;;;14.37;100.00;98548.06;5080364;28;20047;-56
2021/12/31 08:43:14;;;;;;;26.20;4.90;;;;;;;14.02;100.00;98551.44;5080666;28;20106;-56
2021/12/31 08:45:39;;;;;;;23.92;4.70;;;;;;;14.14;100.00;98554.41;5076520;28;20119;-56
2021/12/31 08:48:05;;;;;;;18.95;3.63;;;;;;;14.14;100.00;98551.78;5079634;28;20031;-56
2021/12/31 08:50:31;;;;;;;14.82;3.33;;;;;;;14.00;100.00;98548.00;5075583;28;20032;-57
2021/12/31 08:52:57;;;;;;;17.17;3.40;;;;;;;13.94;100.00;98553.56;5080179;28;20035;-58
2021/12/31 08:55:23;;;;;;;19.08;3.80;;;;;;;13.90;100.00;98552.00;5078677;28;20039;-59
2021/12/31 08:57:48;;;;;;;21.63;3.80;;;;;;;13.96;100.00;98550.88;5075854;28;20036;-56
2021/12/31 09:00:14;;;;;;;22.48;3.90;;;;;;;13.78;100.00;98542.91;5077071;28;20023;-59
2021/12/31 09:02:40;;;;;;;18.77;3.60;;;;;;;14.03;100.00;98540.00;5075670;28;20502;-57
2021/12/31 09:05:07;;;;;;;19.58;3.67;;;;;;;14.25;100.00;98536.41;5075369;28;21084;-55
2021/12/31 09:07:33;;;;;;;18.25;3.53;;;;;;;14.08;100.00;98539.81;5075650;28;20056;-54
2021/12/31 09:09:58;;;;;;;27.50;4.70;;;;;;;14.05;100.00;98546.03;5075310;28;20115;-53
2021/12/31 09:12:24;;;;;;;29.45;4.57;;;;;;;13.62;100.00;98542.75;5073731;28;20081;-55
2021/12/31 09:14:49;;;;;;;25.85;4.22;;;;;;;13.93;100.00;98540.50;5075626;28;20024;-55
2021/12/31 09:17:15;;;;;;;21.17;3.90;;;;;;;14.27;100.00;98537.16;5075502;28;20027;-53
2021/12/31 09:19:40;;;;;;;24.33;4.05;;;;;;;14.36;100.00;98535.88;5079622;28;20035;-54
2021/12/31 09:22:06;;;;;;;25.08;4.20;;;;;;;15.43;100.00;98535.78;5078396;28;20040;-55
2021/12/31 09:24:31;;;;;;;22.60;4.05;;;;;;;15.07;100.00;98543.81;5094388;27;20024;-54
2021/12/31 09:26:57;;;;;;;25.27;4.38;;;;;;;14.96;100.00;98530.34;5075875;28;20044;-55
2021/12/31 09:29:23;;;;;;;22.70;3.85;;;;;;;15.53;100.00;98522.16;5072870;28;20143;-58
2021/12/31 09:31:52;;;;;;;29.58;4.88;;;;;;;15.73;100.00;98528.97;5080725;28;20043;-56
2021/12/31 09:34:18;;;;;;;19.95;3.78;;;;;;;15.37;100.00;98522.97;5073450;28;20039;-56
2021/12/31 09:36:43;;;;;;;23.10;3.90;;;;;;;15.94;100.00;98525.22;5073789;28;20028;-56
2021/12/31 09:39:09;;;;;;;18.13;3.65;;;;;;;15.19;96.57;98523.91;5074963;28;20042;-57
2021/12/31 09:41:35;;;;;;;16.42;3.15;;;;;;;15.79;97.35;98518.19;5069083;28;20029;-57
2021/12/31 09:44:01;;;;;;;16.40;3.45;;;;;;;16.40;89.48;98526.25;5076162;28;20027;-57
2021/12/31 09:46:26;;;;;;;15.57;3.33;;;;;;;15.82;94.67;98518.00;5079318;28;20501;-57
2021/12/31 09:48:52;;;;;;;13.77;2.97;;;;;;;15.71;95.38;98520.31;5079086;28;20033;-57
2021/12/31 09:51:18;;;;;;;15.73;3.47;;;;;;;16.65;90.09;98521.28;5074046;28;20043;-58
2021/12/31 09:53:44;;;;;;;18.27;3.67;;;;;;;16.32;90.72;98522.28;5074252;28;20393;-55
2021/12/31 09:56:09;;;;;;;18.98;3.50;;;;;;;16.11;90.21;98523.47;5075618;28;20489;-56
2021/12/31 09:58:36;;;;;;;13.38;2.95;;;;;;;16.03;91.00;98520.38;5075117;28;20031;-55
2021/12/31 10:01:02;;;;;;;16.88;3.30;;;;;;;16.92;87.22;98516.22;5077101;28;20062;-54
2021/12/31 10:03:29;;;;;;;15.35;3.15;;;;;;;16.98;87.81;98514.16;5078567;28;20039;-54
2021/12/31 10:05:59;;;;;;;14.73;3.13;;;;;;;16.36;88.79;98507.16;5075039;28;20033;-58
2021/12/31 10:08:31;;;;;;;24.27;4.07;;;;;;;17.24;81.38;98500.28;5078121;28;20333;-60
2021/12/31 10:11:08;;;;;;;21.07;4.03;;;;;;;16.82;80.00;98509.78;5075839;28;20122;-56
2021/12/31 10:13:53;;;;;;;19.55;3.67;;;;;;;16.60;83.64;98507.53;5074203;28;20389;-58
2021/12/31 10:16:29;;;;;;;20.48;3.78;;;;;;;17.54;76.45;98513.38;5080214;27;20089;-58
2021/12/31 10:19:05;;;;;;;14.88;3.00;;;;;;;16.61;80.80;98508.38;5078650;28;20028;-57
2021/12/31 10:21:41;;;;;;;21.20;3.75;;;;;;;18.43;70.96;98495.53;5078205;28;20069;-60
2021/12/31 10:24:38;;;;;;;21.92;4.03;;;;;;;16.33;83.01;98502.88;5080394;28;20020;-58
2021/12/31 10:27:12;;;;;;;18.20;3.20;;;;;;;17.80;77.65;98497.72;5078311;27;20038;-59
2021/12/31 10:29:56;;;;;;;19.13;3.55;;;;;;;16.75;79.10;98504.00;5081175;28;20130;-59
2021/12/31 10:32:30;;;;;;;17.67;3.40;;;;;;;17.71;74.26;98498.31;5080440;28;20032;-55
2021/12/31 10:35:13;;;;;;;17.13;3.20;;;;;;;16.72;82.50;98493.63;5086023;27;20036;-57
2021/12/31 10:37:57;;;;;;;24.08;3.88;;;;;;;17.25;78.60;98509.03;5080295;28;20035;-56
2021/12/31 10:40:36;;;;;;;20.50;3.63;;;;;;;16.10;83.46;98501.56;5081089;28;20182;-57
2021/12/31 10:43:11;;;;;;;21.40;3.67;;;;;;;16.10;85.50;98505.97;5079185;28;20038;-56
2021/12/31 10:45:38;;;;;;;14.52;2.95;;;;;;;16.49;83.76;98507.31;5078844;28;20036;-56
2021/12/31 10:48:09;;;;;;;19.15;3.63;;;;;;;16.75;83.83;98501.38;5078040;28;20106;-55
2021/12/31 10:50:35;;;;;;;26.70;4.53;;;;;;;16.32;85.89;98490.69;5080347;27;20032;-56
2021/12/31 10:53:12;;;;;;;25.98;4.35;;;;;;;16.38;85.78;98492.94;5079006;27;20043;-56
2021/12/31 10:55:40;;;;;;;17.02;3.55;;;;;;;16.21;86.34;98486.94;5084149;27;20040;-55
2021/12/31 10:58:10;;;;;;;19.70;3.80;;;;;;;17.01;81.41;98483.22;5080533;28;20024;-56
2021/12/31 11:00:41;;;;;;;17.92;3.45;;;;;;;17.36;82.78;98472.31;5081606;28;20046;-55
2021/12/31 11:03:07;;;;;;;21.27;3.83;;;;;;;16.74;78.11;98470.72;5083244;28;20023;-55
2021/12/31 11:05:34;;;;;;;22.33;4.05;;;;;;;17.11;75.96;98463.28;5081745;28;20043;-56
2021/12/31 11:08:02;;;;;;;17.25;3.28;;;;;;;17.42;73.59;98455.28;5076424;28;20049;-56
2021/12/31 11:10:32;;;;;;;21.63;3.85;;;;;;;18.45;71.62;98461.94;5079830;28;20127;-57
2021/12/31 11:13:01;;;;;;;20.88;3.75;;;;;;;17.39;77.01;98456.31;5079719;28;20386;-56
2021/12/31 11:15:27;;;;;;;23.20;4.03;;;;;;;17.99;72.06;98459.66;5078440;28;20077;-57
2021/12/31 11:17:53;;;;;;;20.88;3.67;;;;;;;17.86;71.81;98465.69;5081025;28;20020;-56